Details for EasyJet at LFPG




Go Back


Latest METAR
Local Time

LFPG 221130Z 22013KT 180V250 CAVOK 18/06 Q1022 NOSIG
22/09/2018, 14:00:50

Description
Results
EasyJet Logo
Number of Pilots based at LFPG
0 Pilots Based here
Number of EasyJet Flights Departed from LFPG
12 Flights Departed
Number of EasyJet Flights Arrived at LFPG
5 Flights Arrived
Number of EasyJet Schedules Departing from LFPG
107 Schedules
Number of EasyJet Schedules Arriving at LFPG
108 Schedules
Number of EasyJet Schedules Departing from LFPG availible today
41 Schedules Today
Number of EasyJet Schedules Arriving at LFPG availible today
41 Schedules Today
Average Landing Rate at LFPG
-223 fpm
EasyJet Average Landing Rate at LFPG
-205 fpm
Total Fuel Purchased at LFPG by EasyJet
36,142.25 kgs / 79,679.20 lbs

Pilots Based at LFPG


Pilot ID
Pilot Name
Pilot Rank
No. of Flights
No. of Flying Hours
There are no pilots assigned to this hub!   Will you be the first?
Content